Time;durP1;ratioP1;P1;durP2;ratioP2;P2;SDS_P1;SDS_P2;PMS_P1;PMS_P2;Temp;Humidity;BMP_temperature;BMP_pressure;BME280_temperature;BME280_humidity;BME280_pressure;Samples;Min_cycle;Max_cycle;Signal;HPM_P1;HPM_P2
2022/07/11 00:01:39;;;;;;;5.53;1.87;;;;;;;13.70;89.14;100666.42;3577263;81;98989;-83
2022/07/11 00:06:40;;;;;;;8.00;2.50;;;;;;;13.64;89.35;100663.85;3574423;81;98924;-83
2022/07/11 00:11:41;;;;;;;7.50;2.40;;;;;;;13.61;89.78;100664.62;3597890;80;98474;-83
2022/07/11 00:16:43;;;;;;;5.92;2.08;;;;;;;13.59;89.99;100663.42;3598961;80;98454;-83
2022/07/11 00:21:44;;;;;;;4.83;1.90;;;;;;;13.53;90.07;100658.85;3595991;79;98918;-82
2022/07/11 00:26:46;;;;;;;8.43;1.98;;;;;;;13.51;90.03;100661.84;3601028;80;99167;-83
2022/07/11 00:31:47;;;;;;;8.07;2.60;;;;;;;13.46;90.02;100653.31;3605513;80;98901;-83
2022/07/11 00:36:48;;;;;;;6.90;1.80;;;;;;;13.39;90.20;100651.11;3638294;80;98534;-83
2022/07/11 00:41:49;;;;;;;6.13;2.00;;;;;;;13.36;90.37;100643.00;3671928;80;34824;-83
2022/07/11 00:46:50;;;;;;;5.97;2.45;;;;;;;13.33;90.24;100643.00;3621803;80;98531;-83
2022/07/11 00:51:51;;;;;;;7.78;2.17;;;;;;;13.29;90.46;100638.05;3624456;80;99113;-83
2022/07/11 00:56:52;;;;;;;5.20;1.72;;;;;;;13.24;90.50;100630.16;3618016;81;98553;-83
2022/07/11 01:01:53;;;;;;;4.92;2.02;;;;;;;13.10;90.64;100608.78;3610139;81;99359;-83
2022/07/11 01:06:54;;;;;;;6.10;2.92;;;;;;;13.13;90.58;100619.66;3667815;79;98951;-83
2022/07/11 01:11:57;;;;;;;9.07;2.43;;;;;;;13.10;90.78;100615.70;3539083;81;31076;-83
2022/07/11 01:16:58;;;;;;;6.00;1.87;;;;;;;13.07;90.65;100612.89;3536918;83;98817;-83
2022/07/11 01:22:03;;;;;;;8.97;2.17;;;;;;;13.05;91.03;100614.69;3546133;82;98989;-83
2022/07/11 01:27:05;;;;;;;7.25;2.00;;;;;;;13.02;91.08;100617.44;3538690;82;98407;-83
2022/07/11 01:32:07;;;;;;;4.83;2.00;;;;;;;13.01;91.28;100622.73;3536617;82;98370;-83
2022/07/11 01:37:08;;;;;;;7.15;2.45;;;;;;;12.99;90.98;100620.39;3555655;82;98861;-83
2022/07/11 01:42:09;;;;;;;4.60;2.10;;;;;;;12.94;91.03;100612.44;3535587;82;28069;-83
2022/07/11 01:47:11;;;;;;;4.55;1.50;;;;;;;12.89;90.92;100606.48;3563336;81;99041;-83
2022/07/11 01:52:12;;;;;;;6.90;2.00;;;;;;;12.82;90.77;100612.75;3503536;83;98749;-83
2022/07/11 01:57:13;;;;;;;7.57;1.80;;;;;;;12.74;90.83;100612.53;3468252;83;98964;-83
2022/07/11 02:02:15;;;;;;;5.23;1.90;;;;;;;12.65;90.62;100614.06;3559437;82;99282;-83
2022/07/11 02:08:11;;;;;;;6.47;2.00;;;;;;;12.61;91.10;100611.86;3539577;81;99106;-83
2022/07/11 02:12:22;;;;;;;7.37;2.20;;;;;;;12.56;91.14;100614.98;3506082;84;26305;-83
2022/07/11 02:17:23;;;;;;;5.20;2.00;;;;;;;12.52;91.11;100612.78;3557471;81;99132;-83
2022/07/11 02:22:24;;;;;;;7.70;2.43;;;;;;;12.44;91.03;100609.19;3581489;81;98652;-83
2022/07/11 02:27:25;;;;;;;4.80;1.87;;;;;;;12.40;91.45;100609.77;3565740;81;98972;-83
2022/07/11 02:32:26;;;;;;;8.37;2.10;;;;;;;12.33;91.06;100604.79;3572962;81;98401;-83
2022/07/11 02:37:28;;;;;;;6.37;1.60;;;;;;;12.28;91.16;100610.09;3570139;81;98457;-83
2022/07/11 02:42:29;;;;;;;5.70;1.90;;;;;;;12.19;91.27;100611.58;3579908;81;31039;-83
2022/07/11 02:47:30;;;;;;;6.08;1.70;;;;;;;12.15;91.45;100619.05;3577938;81;99135;-82
2022/07/11 02:52:31;;;;;;;7.50;2.17;;;;;;;12.13;91.88;100622.19;3575513;81;98991;-83
2022/07/11 02:57:32;;;;;;;7.33;1.90;;;;;;;12.12;91.79;100625.33;3570256;81;99214;-83
2022/07/11 03:02:33;;;;;;;6.83;1.83;;;;;;;12.09;91.76;100621.36;3574407;81;98442;-83
2022/07/11 03:07:34;;;;;;;6.78;2.30;;;;;;;12.08;91.73;100627.25;3557094;81;99274;-83
2022/07/11 03:12:35;;;;;;;5.07;1.53;;;;;;;12.06;92.07;100635.12;3627364;79;33101;-82
2022/07/11 03:17:37;;;;;;;6.33;2.30;;;;;;;12.06;92.11;100641.45;3673374;79;98950;-83
2022/07/11 03:22:38;;;;;;;7.23;2.07;;;;;;;12.04;91.99;100640.25;3661163;80;99087;-83
2022/07/11 03:27:39;;;;;;;8.73;2.43;;;;;;;11.97;91.54;100631.89;3648112;79;99247;-83
2022/07/11 03:32:40;;;;;;;4.74;1.86;;;;;;;11.94;92.22;100638.19;3692473;80;99363;-83
2022/07/11 03:37:41;;;;;;;7.80;2.10;;;;;;;11.96;92.38;100633.07;3653355;80;98762;-83
2022/07/11 03:42:43;;;;;;;6.13;1.77;;;;;;;11.97;92.60;100634.66;3691054;80;30551;-82
2022/07/11 03:47:44;;;;;;;10.53;2.10;;;;;;;11.96;92.45;100634.45;3683404;80;98495;-83
2022/07/11 03:52:45;;;;;;;8.67;2.33;;;;;;;11.91;92.22;100630.66;3697487;79;99168;-83
2022/07/11 03:57:46;;;;;;;9.38;2.95;;;;;;;11.79;91.75;100630.37;3672141;80;98899;-83
2022/07/11 04:02:48;;;;;;;13.37;2.90;;;;;;;11.72;92.27;100633.05;3695388;79;98866;-83
2022/07/11 04:07:49;;;;;;;11.07;3.83;;;;;;;11.60;92.11;100627.01;3662663;79;99292;-83
2022/07/11 04:12:50;;;;;;;8.60;2.10;;;;;;;11.47;93.01;100630.61;3622511;81;99174;-82
2022/07/11 04:17:51;;;;;;;10.83;2.40;;;;;;;11.55;93.91;100628.73;3600690;81;98617;-83
2022/07/11 04:22:53;;;;;;;10.50;2.60;;;;;;;11.66;94.21;100635.17;3620598;81;98649;-83
2022/07/11 04:27:54;;;;;;;7.80;2.43;;;;;;;11.67;93.35;100637.52;3609160;81;99376;-82
2022/07/11 04:32:55;;;;;;;7.37;2.07;;;;;;;11.61;93.69;100627.23;3615040;81;98524;-82
2022/07/11 04:37:57;;;;;;;9.07;2.70;;;;;;;11.61;94.38;100628.62;3616938;81;98857;-83
2022/07/11 04:42:58;;;;;;;7.27;1.90;;;;;;;11.70;94.38;100631.84;3622218;81;98778;-83
2022/07/11 04:48:01;;;;;;;9.47;2.33;;;;;;;11.73;94.40;100637.37;3604586;81;98557;-83
2022/07/11 04:53:02;;;;;;;14.03;3.65;;;;;;;11.80;94.40;100631.16;3608452;80;97887;-83
2022/07/11 04:58:03;;;;;;;11.77;2.20;;;;;;;11.86;94.73;100629.05;3600732;81;99017;-83
2022/07/11 05:03:04;;;;;;;6.87;2.17;;;;;;;11.84;95.10;100635.52;3616996;81;98221;-83
2022/07/11 05:08:06;;;;;;;6.80;2.40;;;;;;;11.95;95.56;100636.41;3543029;81;98954;-82
2022/07/11 05:13:07;;;;;;;7.40;2.40;;;;;;;12.08;95.72;100628.06;3594295;81;99228;-83
2022/07/11 05:18:08;;;;;;;8.53;2.87;;;;;;;12.20;96.21;100638.80;3586309;81;98787;-83
2022/07/11 05:23:09;;;;;;;6.17;2.27;;;;;;;12.32;97.03;100642.62;3592630;82;99027;-83
2022/07/11 05:28:10;;;;;;;9.13;2.60;;;;;;;12.48;97.83;100644.52;3578212;81;99010;-83
2022/07/11 05:33:11;;;;;;;8.68;2.90;;;;;;;12.67;98.20;100649.78;3553306;83;98913;-83
2022/07/11 05:38:12;;;;;;;15.27;3.60;;;;;;;12.96;99.66;100641.87;3544405;81;98747;-83
2022/07/11 05:43:13;;;;;;;8.90;2.52;;;;;;;13.26;99.86;100643.78;3640853;79;99011;-82
2022/07/11 05:48:14;;;;;;;8.27;2.83;;;;;;;13.65;100.00;100652.98;3566787;81;98987;-83
2022/07/11 05:53:15;;;;;;;8.15;2.37;;;;;;;13.99;99.97;100652.02;3564524;82;98426;-82
2022/07/11 05:58:16;;;;;;;9.45;2.30;;;;;;;14.37;100.00;100654.03;3570325;80;98992;-83
2022/07/11 06:03:17;;;;;;;6.87;2.27;;;;;;;14.73;99.30;100663.89;3580569;80;99681;-82
2022/07/11 06:13:41;;;;;;;6.20;1.95;;;;;;;15.25;97.68;100668.46;3553946;82;98843;-81
2022/07/11 06:18:42;;;;;;;10.75;2.40;;;;;;;15.50;96.70;100670.57;3561081;82;98993;-81
2022/07/11 06:23:43;;;;;;;8.23;2.85;;;;;;;15.68;95.60;100675.42;3563227;82;26578;-81
2022/07/11 06:28:45;;;;;;;11.97;2.53;;;;;;;15.83;95.27;100681.09;3560318;81;98640;-82
2022/07/11 06:33:47;;;;;;;9.87;2.00;;;;;;;15.99;94.95;100677.22;3564754;81;99035;-86
2022/07/11 06:38:49;;;;;;;6.97;1.80;;;;;;;16.15;94.28;100680.27;3502846;84;98934;-85
2022/07/11 06:43:51;;;;;;;10.43;2.20;;;;;;;16.30;93.57;100686.69;3520160;83;99136;-86
2022/07/11 06:48:52;;;;;;;8.25;1.98;;;;;;;16.47;93.27;100687.16;3510448;83;99719;-85
2022/07/11 06:53:53;;;;;;;7.00;2.20;;;;;;;16.65;92.97;100689.20;3456294;84;26072;-85
2022/07/11 06:58:54;;;;;;;11.80;2.10;;;;;;;16.82;92.59;100674.92;3510496;82;98720;-83
2022/07/11 07:03:55;;;;;;;10.13;2.43;;;;;;;17.04;92.44;100680.45;3497868;83;99001;-84
2022/07/11 07:08:56;;;;;;;9.18;2.37;;;;;;;17.27;91.51;100679.98;3552474;82;99151;-86
2022/07/11 07:13:58;;;;;;;7.27;1.63;;;;;;;17.52;91.17;100689.44;3534673;83;98543;-84
2022/07/11 07:18:59;;;;;;;8.33;2.10;;;;;;;17.70;90.25;100688.59;3486151;84;99049;-84
2022/07/11 07:24:00;;;;;;;8.03;1.90;;;;;;;17.97;89.53;100691.59;3500069;83;32906;-84
2022/07/11 07:29:01;;;;;;;9.37;1.67;;;;;;;18.34;89.72;100692.03;3446837;84;98863;-84
2022/07/11 07:34:02;;;;;;;8.70;1.80;;;;;;;18.68;88.53;100701.00;3485775;83;98910;-85
2022/07/11 07:39:03;;;;;;;4.60;1.50;;;;;;;18.83;87.06;100698.15;3489809;83;98995;-86
2022/07/11 07:44:05;;;;;;;4.53;1.33;;;;;;;19.16;86.96;100696.52;3483797;83;98943;-85
2022/07/11 07:49:05;;;;;;;4.35;1.15;;;;;;;19.62;86.04;100688.63;3470161;83;99192;-85
2022/07/11 07:54:07;;;;;;;5.83;1.40;;;;;;;20.20;85.04;100688.51;3540615;82;31054;-87
2022/07/11 07:59:08;;;;;;;3.93;1.07;;;;;;;20.80;83.09;100689.77;3541599;82;98798;-86
2022/07/11 08:04:10;;;;;;;3.10;0.93;;;;;;;21.36;81.19;100686.87;3541489;82;98929;-86
2022/07/11 08:09:13;;;;;;;1.95;0.75;;;;;;;21.81;80.42;100677.13;3540005;81;98873;-86
2022/07/11 08:14:14;;;;;;;3.83;0.68;;;;;;;22.37;78.55;100673.91;3601299;80;98827;-87
2022/07/11 08:19:15;;;;;;;2.10;0.62;;;;;;;23.31;77.70;100673.23;3573700;81;98850;-86
2022/07/11 08:24:16;;;;;;;1.67;0.55;;;;;;;24.26;75.29;100668.28;3552827;82;32987;-86
2022/07/11 08:29:18;;;;;;;0.62;0.47;;;;;;;24.97;72.75;100664.06;3548628;82;98706;-87
2022/07/11 08:34:18;;;;;;;3.98;0.80;;;;;;;25.68;69.22;100667.27;3565478;81;97984;-85
2022/07/11 08:39:19;;;;;;;5.90;1.92;;;;;;;26.36;67.42;100664.97;3604182;80;99100;-85
2022/07/11 08:44:21;;;;;;;4.42;1.00;;;;;;;26.45;62.25;100647.37;3581585;81;99186;-84
2022/07/11 08:49:23;;;;;;;3.87;1.10;;;;;;;26.35;62.19;100655.73;3542550;82;99289;-86
2022/07/11 08:54:24;;;;;;;6.42;1.50;;;;;;;26.36;61.22;100643.80;3600908;80;26183;-84
2022/07/11 08:59:28;;;;;;;4.42;1.37;;;;;;;26.27;59.79;100662.21;3611842;81;99065;-83
2022/07/11 09:04:30;;;;;;;9.48;1.30;;;;;;;25.69;59.66;100663.20;3570841;81;98634;-83
2022/07/11 09:09:31;;;;;;;2.50;1.10;;;;;;;25.58;60.21;100666.52;3546274;80;98985;-82
2022/07/11 09:14:33;;;;;;;2.47;0.53;;;;;;;25.10;60.33;100666.70;3585249;81;98901;-82
2022/07/11 09:19:39;;;;;;;0.93;0.53;;;;;;;24.60;59.43;100665.89;3560277;81;98855;-84
2022/07/11 09:25:25;;;;;;;2.20;0.60;;;;;;;24.61;60.54;100663.23;3563818;81;26470;-82
2022/07/11 09:30:31;;;;;;;2.87;0.53;;;;;;;24.99;61.64;100659.35;3534891;82;98974;-87
2022/07/11 09:35:39;;;;;;;2.55;0.60;;;;;;;25.37;59.88;100668.12;3566394;82;99061;-86
2022/07/11 09:40:47;;;;;;;2.27;0.65;;;;;;;25.30;57.69;100658.59;3561008;81;99134;-84
2022/07/11 09:45:48;;;;;;;2.62;0.55;;;;;;;25.87;58.54;100670.17;3514408;83;98861;-87
2022/07/11 09:51:00;;;;;;;2.75;0.50;;;;;;;25.86;55.28;100700.44;3498502;83;98541;-84
2022/07/11 09:56:00;;;;;;;4.03;0.55;;;;;;;25.33;54.67;100714.78;3556343;81;99052;-83
2022/07/11 10:01:01;;;;;;;4.33;0.45;;;;;;;25.08;55.88;100705.83;3546323;81;98944;-83
2022/07/11 10:06:02;;;;;;;3.87;0.50;;;;;;;24.96;56.87;100700.50;3570411;81;33500;-82
2022/07/11 10:11:03;;;;;;;3.30;0.40;;;;;;;24.76;57.43;100688.13;3566059;81;98973;-83
2022/07/11 10:16:10;;;;;;;2.87;0.65;;;;;;;24.75;58.28;100700.64;3493451;82;99118;-84
2022/07/11 10:21:20;;;;;;;2.30;0.50;;;;;;;25.07;59.44;100700.81;3506413;82;98300;-83
2022/07/11 10:26:53;;;;;;;2.12;0.50;;;;;;;25.48;59.58;100700.82;3514702;82;98831;-82
2022/07/11 10:32:12;;;;;;;1.27;0.60;;;;;;;25.89;59.39;100710.75;3532639;82;98960;-84
2022/07/11 10:37:14;;;;;;;3.22;0.80;;;;;;;26.37;59.39;100707.47;3503041;83;98931;-80
2022/07/11 10:42:21;;;;;;;1.02;0.57;;;;;;;26.58;56.94;100696.54;3453240;84;26414;-80
2022/07/11 10:47:41;;;;;;;0.93;0.60;;;;;;;25.97;53.64;100711.23;3444270;84;98943;-82
2022/07/11 10:52:46;;;;;;;1.12;0.70;;;;;;;25.50;53.12;100717.42;3457361;84;97928;-83
2022/07/11 10:58:24;;;;;;;1.57;0.82;;;;;;;25.49;52.82;100718.67;3483584;82;98778;-83
2022/07/11 11:03:26;;;;;;;2.00;0.50;;;;;;;25.89;54.25;100716.39;3507697;82;99189;-82
2022/07/11 11:08:42;;;;;;;1.05;0.30;;;;;;;26.97;53.73;100726.42;3503566;82;99025;-84
2022/07/11 11:13:43;;;;;;;2.50;0.90;;;;;;;27.44;51.68;100715.84;3518593;82;98068;-82
2022/07/11 11:18:45;;;;;;;1.95;0.53;;;;;;;28.17;52.55;100718.05;3564462;81;98867;-82
2022/07/11 11:24:02;;;;;;;2.98;0.35;;;;;;;28.81;51.40;100725.86;3563407;81;25917;-83
2022/07/11 11:29:06;;;;;;;3.25;0.40;;;;;;;29.11;49.76;100727.95;3561249;81;99040;-81
2022/07/11 11:34:07;;;;;;;1.53;0.50;;;;;;;28.72;47.62;100733.72;3562090;81;98627;-81
2022/07/11 11:39:09;;;;;;;1.12;0.40;;;;;;;28.58;48.12;100726.83;3529132;81;99426;-82
2022/07/11 11:44:10;;;;;;;0.30;0.30;;;;;;;28.57;48.23;100723.86;3575661;81;99090;-83
2022/07/11 11:49:11;;;;;;;0.72;0.40;;;;;;;28.80;48.69;100721.48;3570413;81;99295;-82
2022/07/11 11:54:23;;;;;;;1.25;0.35;;;;;;;28.93;48.14;100714.81;3564223;82;32955;-82
2022/07/11 11:59:31;;;;;;;1.55;0.40;;;;;;;29.16;46.87;100713.83;3563098;81;98852;-82
2022/07/11 12:04:36;;;;;;;1.57;0.55;;;;;;;29.11;46.70;100710.31;3543238;81;98629;-86
2022/07/11 12:09:46;;;;;;;1.65;0.40;;;;;;;29.45;46.22;100714.29;3556466;81;98605;-84
2022/07/11 12:14:47;;;;;;;2.35;0.62;;;;;;;30.01;45.83;100712.14;3568144;81;99236;-83
2022/07/11 12:19:48;;;;;;;1.22;0.42;;;;;;;30.05;44.35;100724.05;3548561;81;98517;-84
2022/07/11 12:24:52;;;;;;;0.40;0.20;;;;;;;30.13;43.64;100720.27;3544186;81;99348;-82
2022/07/11 12:29:53;;;;;;;1.62;0.35;;;;;;;30.32;43.03;100707.27;3525906;81;98909;-82
2022/07/11 12:34:54;;;;;;;0.65;0.45;;;;;;;30.28;42.77;100703.88;3480111;83;99108;-84
2022/07/11 12:40:06;;;;;;;0.98;0.40;;;;;;;29.66;42.19;100702.44;3537853;81;98743;-81
2022/07/11 12:45:11;;;;;;;1.50;0.68;;;;;;;29.43;41.80;100704.86;3553621;82;98875;-83
2022/07/11 12:50:20;;;;;;;2.12;0.50;;;;;;;29.38;43.17;100708.41;3505982;82;98899;-85
2022/07/11 12:55:32;;;;;;;2.52;0.50;;;;;;;29.36;41.80;100693.20;3521466;82;98900;-81
2022/07/11 13:00:37;;;;;;;2.00;0.40;;;;;;;28.89;41.21;100691.56;3508058;82;98511;-82
2022/07/11 13:05:52;;;;;;;1.10;0.57;;;;;;;28.51;41.64;100691.06;3522317;82;98121;-80
2022/07/11 13:11:00;;;;;;;0.68;0.33;;;;;;;28.65;42.86;100678.25;3503633;82;98838;-83
2022/07/11 13:15:56;;;;;;;0.78;0.50;;;;;;;28.88;43.31;100685.00;3498617;83;99331;-82
2022/07/11 13:20:57;;;;;;;1.15;0.50;;;;;;;28.93;42.35;100673.72;3517207;82;99200;-82
2022/07/11 13:25:59;;;;;;;1.10;0.60;;;;;;;28.87;42.27;100666.45;3505043;82;98951;-80
2022/07/11 13:31:00;;;;;;;1.00;0.70;;;;;;;28.90;42.54;100667.64;3507218;83;98973;-82
2022/07/11 13:36:01;;;;;;;0.50;0.45;;;;;;;28.40;41.00;100655.51;3526039;83;32924;-82
2022/07/11 13:41:03;;;;;;;3.02;0.65;;;;;;;28.40;43.27;100662.59;3463213;83;99064;-84
2022/07/11 13:46:04;;;;;;;2.58;0.55;;;;;;;28.47;42.95;100667.20;3523984;82;99209;-82
2022/07/11 13:51:05;;;;;;;3.27;0.95;;;;;;;28.44;43.46;100699.98;3494034;82;98680;-84
2022/07/11 13:56:07;;;;;;;5.50;1.00;;;;;;;28.24;45.35;100727.58;3469833;84;98914;-85
2022/07/11 14:01:08;;;;;;;3.20;1.00;;;;;;;27.37;46.42;100764.30;3466153;83;98940;-86
2022/07/11 14:06:09;;;;;;;2.90;0.70;;;;;;;26.19;48.00;100764.77;3472423;83;33047;-86
2022/07/11 14:11:11;;;;;;;4.05;0.80;;;;;;;25.14;49.29;100748.41;3475710;84;98786;-85
2022/07/11 14:16:12;;;;;;;1.90;0.47;;;;;;;24.68;50.93;100728.45;3413833;85;97993;-85
2022/07/11 14:21:16;;;;;;;1.82;0.50;;;;;;;24.29;51.94;100730.66;3558357;81;99237;-86
2022/07/11 14:26:18;;;;;;;2.30;0.60;;;;;;;24.08;53.21;100731.50;3572310;81;99141;-86
2022/07/11 14:31:19;;;;;;;1.55;0.40;;;;;;;23.83;53.74;100732.28;3533948;81;99271;-86
2022/07/11 14:36:21;;;;;;;1.17;0.40;;;;;;;23.57;54.61;100734.46;3555886;81;99004;-85
2022/07/11 14:41:23;;;;;;;0.95;0.40;;;;;;;23.43;55.13;100726.55;3571382;81;99033;-84
2022/07/11 14:46:24;;;;;;;1.05;0.50;;;;;;;23.27;55.79;100731.58;3581722;80;99009;-85
2022/07/11 14:51:28;;;;;;;1.45;0.60;;;;;;;23.09;56.81;100734.18;3581050;80;98545;-86
2022/07/11 14:56:29;;;;;;;1.67;0.50;;;;;;;22.97;57.09;100737.82;3573871;81;99420;-85
2022/07/11 15:01:32;;;;;;;2.10;0.60;;;;;;;22.81;57.65;100737.36;3538348;81;98872;-84
2022/07/11 15:17:12;;;;;;;5.55;0.75;;;;;;;22.64;59.61;100737.34;3606813;80;98848;-84
2022/07/11 15:22:15;;;;;;;1.73;0.50;;;;;;;22.62;59.53;100732.78;3601468;81;98608;-84
2022/07/11 15:27:16;;;;;;;3.50;0.62;;;;;;;22.54;59.89;100739.88;3596984;81;98953;-84
2022/07/11 15:32:17;;;;;;;1.17;0.70;;;;;;;22.37;60.31;100734.81;3614121;81;99027;-83
2022/07/11 15:37:18;;;;;;;1.77;0.88;;;;;;;22.25;60.55;100732.80;3620974;80;99250;-83
2022/07/11 15:42:19;;;;;;;4.28;1.25;;;;;;;22.18;61.10;100729.59;3647482;80;31018;-83
2022/07/11 15:47:20;;;;;;;1.45;0.70;;;;;;;22.18;62.21;100730.22;3627417;80;98930;-83
2022/07/11 15:52:21;;;;;;;2.00;0.70;;;;;;;22.12;62.26;100729.22;3581304;82;97841;-83
2022/07/11 15:57:22;;;;;;;0.68;0.55;;;;;;;21.97;62.52;100734.45;3551048;82;99069;-85
2022/07/11 16:02:24;;;;;;;2.52;0.80;;;;;;;21.85;63.92;100733.06;3592894;81;97993;-83
2022/07/11 16:07:25;;;;;;;2.10;0.67;;;;;;;21.66;63.41;100746.59;3579510;81;98781;-84
2022/07/11 16:12:26;;;;;;;2.43;0.70;;;;;;;21.43;64.63;100758.86;3594134;81;26480;-83
2022/07/11 16:17:28;;;;;;;1.17;0.40;;;;;;;21.32;65.97;100759.77;3566395;82;98958;-85
2022/07/11 16:22:30;;;;;;;0.83;0.60;;;;;;;21.16;66.59;100764.00;3584996;81;98341;-84
2022/07/11 16:27:31;;;;;;;0.42;0.30;;;;;;;21.10;66.35;100768.54;3542616;78;99136;-86
2022/07/11 16:32:32;;;;;;;1.98;0.65;;;;;;;20.98;66.12;100770.66;3576729;81;99208;-86
2022/07/11 16:37:33;;;;;;;1.15;0.42;;;;;;;20.82;65.83;100769.88;3554766;81;99320;-88
2022/07/11 16:47:54;;;;;;;2.12;0.50;;;;;;;20.47;64.81;100763.13;3539484;82;98674;-85
2022/07/11 16:52:55;;;;;;;0.77;0.47;;;;;;;20.32;64.47;100762.52;3532460;80;99033;-84
2022/07/11 16:57:56;;;;;;;0.33;0.30;;;;;;;20.19;64.95;100770.79;3548174;81;99316;-87
2022/07/11 17:02:57;;;;;;;0.20;0.20;;;;;;;20.02;63.37;100778.92;3595079;81;99282;-85
2022/07/11 17:13:18;;;;;;;0.55;0.50;;;;;;;19.71;62.27;100794.34;3587094;79;98905;-84
2022/07/11 17:18:20;;;;;;;0.30;0.20;;;;;;;19.55;62.21;100797.66;3593131;80;98582;-83
2022/07/11 17:23:22;;;;;;;1.27;0.40;;;;;;;19.41;62.03;100798.72;3628049;80;98872;-85
2022/07/11 17:28:23;;;;;;;1.70;0.37;;;;;;;19.28;62.66;100799.77;3606358;81;98953;-83
2022/07/11 17:33:25;;;;;;;0.30;0.25;;;;;;;19.18;62.47;100793.77;3599523;80;98815;-84
2022/07/11 17:38:26;;;;;;;1.80;0.40;;;;;;;19.14;63.19;100798.61;3604541;80;99013;-83
2022/07/11 17:43:27;;;;;;;2.70;0.37;;;;;;;19.13;63.86;100798.44;3605732;80;99146;-85
2022/07/11 17:48:28;;;;;;;1.17;0.60;;;;;;;19.10;63.80;100795.89;3610321;80;98936;-86
2022/07/11 17:53:30;;;;;;;2.27;0.53;;;;;;;19.11;63.71;100796.06;3605445;80;98368;-83
2022/07/11 17:58:31;;;;;;;3.23;0.40;;;;;;;19.08;63.55;100801.09;3593777;80;99199;-86
2022/07/11 18:03:32;;;;;;;2.20;0.40;;;;;;;19.02;62.79;100804.81;3605734;80;98872;-85
2022/07/11 18:08:33;;;;;;;4.50;0.50;;;;;;;18.96;62.15;100812.09;3604843;80;98888;-87
2022/07/11 18:13:35;;;;;;;0.67;0.30;;;;;;;18.89;61.89;100817.77;3606385;80;99455;-86
2022/07/11 18:18:36;;;;;;;0.60;0.30;;;;;;;18.80;62.22;100821.72;3622506;80;98454;-85
2022/07/11 18:23:37;;;;;;;0.33;0.20;;;;;;;18.69;62.42;100826.05;3643852;80;98963;-86
2022/07/11 18:28:38;;;;;;;0.63;0.23;;;;;;;18.59;63.01;100833.20;3645160;80;98991;-85
2022/07/11 18:33:39;;;;;;;0.77;0.30;;;;;;;18.49;63.23;100838.33;3649903;80;99298;-83
2022/07/11 18:44:04;;;;;;;0.17;0.17;;;;;;;18.26;63.24;100843.18;3643323;80;98826;-86
2022/07/11 18:49:03;;;;;;;1.27;0.50;;;;;;;18.13;63.48;100854.71;3621280;80;98811;-85
2022/07/11 18:54:04;;;;;;;1.13;0.20;;;;;;;18.02;63.76;100849.08;3641347;80;27201;-85
2022/07/11 18:59:05;;;;;;;0.90;0.33;;;;;;;17.89;63.51;100852.23;3632369;80;98735;-84
2022/07/11 19:04:07;;;;;;;2.43;0.63;;;;;;;17.79;64.25;100859.51;3634754;80;98244;-85
2022/07/11 19:09:08;;;;;;;1.03;0.20;;;;;;;17.67;64.48;100861.44;3630582;80;99228;-84
2022/07/11 19:14:12;;;;;;;1.73;0.80;;;;;;;17.57;64.77;100865.71;3644397;80;99111;-84
2022/07/11 19:19:12;;;;;;;1.27;0.50;;;;;;;17.49;66.07;100869.78;3567855;81;100218;-84
2022/07/11 19:24:15;;;;;;;0.87;0.50;;;;;;;17.38;66.39;100874.05;3588749;81;25916;-84
2022/07/11 19:29:16;;;;;;;1.12;0.57;;;;;;;17.30;67.79;100874.49;3455220;83;98959;-84
2022/07/11 19:34:17;;;;;;;0.63;0.33;;;;;;;17.22;67.89;100875.77;3587363;80;97752;-83
2022/07/11 19:39:18;;;;;;;0.63;0.40;;;;;;;17.10;68.46;100877.64;3565351;81;98887;-84
2022/07/11 19:44:20;;;;;;;0.83;0.40;;;;;;;16.98;68.49;100880.33;3583571;81;99166;-84
2022/07/11 19:49:21;;;;;;;0.65;0.53;;;;;;;16.87;68.71;100883.80;3568789;81;98894;-84
2022/07/11 19:59:42;;;;;;;0.78;0.50;;;;;;;16.68;69.61;100886.31;3584705;80;98960;-84
2022/07/11 20:04:43;;;;;;;0.50;0.50;;;;;;;16.58;70.02;100891.33;3582955;81;97818;-85
2022/07/11 20:09:45;;;;;;;0.63;0.50;;;;;;;16.50;70.22;100897.52;3571142;81;98907;-84
2022/07/11 20:14:45;;;;;;;1.10;0.63;;;;;;;16.44;70.87;100892.78;3587588;80;98835;-83
2022/07/11 20:19:47;;;;;;;0.97;0.50;;;;;;;16.34;71.14;100902.73;3629190;80;98745;-85
2022/07/11 20:24:48;;;;;;;1.00;0.50;;;;;;;16.29;71.99;100902.38;3645987;81;98363;-85
2022/07/11 20:29:49;;;;;;;1.43;0.50;;;;;;;16.22;72.71;100909.33;3626951;80;98752;-85
2022/07/11 20:34:51;;;;;;;2.57;0.53;;;;;;;16.16;73.24;100903.42;3646822;80;99000;-85
2022/07/11 20:39:52;;;;;;;1.70;0.77;;;;;;;16.08;73.22;100917.12;3632774;80;98779;-86
2022/07/11 20:44:53;;;;;;;0.77;0.40;;;;;;;16.01;73.73;100923.30;3642485;81;98455;-85
2022/07/11 20:49:54;;;;;;;2.97;0.60;;;;;;;15.94;74.03;100921.34;3639606;81;98778;-85
2022/07/11 20:54:55;;;;;;;0.90;0.40;;;;;;;15.88;74.65;100925.73;3637888;80;98058;-85
2022/07/11 20:59:57;;;;;;;2.27;0.77;;;;;;;15.84;75.15;100925.52;3635508;80;98297;-86
2022/07/11 21:04:58;;;;;;;3.13;1.20;;;;;;;15.80;75.79;100939.41;3572752;82;98844;-85
2022/07/11 21:09:59;;;;;;;4.70;1.30;;;;;;;15.74;76.05;100929.91;3641607;80;99230;-85
2022/07/11 21:15:00;;;;;;;4.63;1.50;;;;;;;15.67;76.11;100943.00;3652650;80;98586;-85
2022/07/11 21:20:02;;;;;;;4.00;1.60;;;;;;;15.59;76.40;100940.83;3562939;81;99302;-85
2022/07/11 21:25:04;;;;;;;2.72;1.15;;;;;;;15.55;77.00;100942.84;3639591;80;99252;-86
2022/07/11 21:30:06;;;;;;;1.77;0.97;;;;;;;15.47;77.02;100941.25;3622287;80;98906;-84
2022/07/11 21:35:08;;;;;;;3.57;1.07;;;;;;;15.36;76.71;100943.23;3633780;80;99184;-85
2022/07/11 21:40:10;;;;;;;2.60;1.00;;;;;;;15.23;76.77;100946.18;3639650;80;99150;-86
2022/07/11 21:45:11;;;;;;;5.37;1.32;;;;;;;15.19;77.57;100942.60;3648442;81;98518;-85
2022/07/11 21:50:13;;;;;;;5.47;1.30;;;;;;;15.14;77.70;100942.19;3633341;80;99107;-85
2022/07/11 21:55:14;;;;;;;4.13;1.70;;;;;;;15.13;78.48;100943.38;3645825;80;98052;-85
2022/07/11 22:00:16;;;;;;;4.30;1.53;;;;;;;15.11;78.82;100949.93;3620360;81;98728;-85
2022/07/11 22:05:17;;;;;;;6.67;1.92;;;;;;;15.08;79.37;100938.23;3640728;80;99074;-84
2022/07/11 22:10:18;;;;;;;5.50;2.40;;;;;;;15.04;79.38;100947.16;3582798;80;98672;-85
2022/07/11 22:15:20;;;;;;;5.70;1.70;;;;;;;14.99;79.65;100946.94;3586680;80;98788;-89
2022/07/11 22:20:21;;;;;;;4.72;1.70;;;;;;;14.94;79.66;100946.55;3512593;83;98383;-89
2022/07/11 22:25:23;;;;;;;5.10;1.60;;;;;;;14.89;80.21;100943.55;3514851;81;98003;-89
2022/07/11 22:30:24;;;;;;;3.37;1.50;;;;;;;14.86;80.47;100947.70;3619610;80;98665;-90
2022/07/11 22:35:25;;;;;;;3.10;1.57;;;;;;;14.80;80.59;100947.89;3510631;82;99085;-89
2022/07/11 22:40:26;;;;;;;3.67;1.10;;;;;;;14.74;80.66;100951.66;3459441;84;98839;-89
2022/07/11 22:45:27;;;;;;;3.27;1.20;;;;;;;14.69;80.99;100952.61;3462900;85;99304;-89
2022/07/11 22:50:28;;;;;;;3.00;1.27;;;;;;;14.63;81.28;100944.48;3455176;84;99180;-89
2022/07/11 22:55:30;;;;;;;3.47;1.40;;;;;;;14.58;81.33;100947.05;3475840;85;98571;-89
2022/07/11 23:00:31;;;;;;;2.03;1.13;;;;;;;14.53;81.58;100948.81;3474022;84;98706;-89
2022/07/11 23:05:32;;;;;;;3.33;1.23;;;;;;;14.48;81.66;100938.69;3459082;85;99146;-89
2022/07/11 23:10:33;;;;;;;2.43;1.23;;;;;;;14.45;82.15;100938.11;3501625;83;99032;-89
2022/07/11 23:15:36;;;;;;;2.40;1.10;;;;;;;14.42;82.45;100938.87;3522332;83;99116;-89
2022/07/11 23:20:37;;;;;;;6.87;1.37;;;;;;;14.39;82.71;100934.12;3502942;83;99296;-89
2022/07/11 23:25:38;;;;;;;3.57;1.50;;;;;;;14.36;83.04;100935.70;3488870;82;99235;-88
2022/07/11 23:30:40;;;;;;;2.77;1.10;;;;;;;14.34;83.07;100932.51;3512373;82;98319;-89
2022/07/11 23:35:41;;;;;;;2.50;1.17;;;;;;;14.30;83.28;100928.16;3511893;83;98071;-89
2022/07/11 23:40:42;;;;;;;4.23;1.30;;;;;;;14.30;83.82;100933.11;3460464;83;98801;-89
2022/07/11 23:45:43;;;;;;;3.07;1.20;;;;;;;14.27;83.81;100938.03;3600097;80;97990;-89
2022/07/11 23:50:44;;;;;;;3.97;1.37;;;;;;;14.24;83.96;100942.98;3570969;81;98830;-89
2022/07/11 23:55:45;;;;;;;2.53;1.30;;;;;;;14.17;84.26;100942.89;3586259;81;98888;-88
